createdAt,value
2019-02-16T00:00:21.335Z,0.00
2019-02-16T00:01:21.317Z,0.00
2019-02-16T00:02:21.305Z,0.00
2019-02-16T00:03:21.289Z,0.00
2019-02-16T00:04:21.267Z,0.00
2019-02-16T00:05:21.253Z,0.00
2019-02-16T00:06:21.240Z,0.00
2019-02-16T00:07:21.229Z,0.00
2019-02-16T00:08:21.204Z,0.00
2019-02-16T00:09:21.194Z,0.00
2019-02-16T00:10:21.178Z,0.00
2019-02-16T00:11:21.159Z,0.00
2019-02-16T00:12:21.144Z,0.00
2019-02-16T00:13:21.127Z,0.00
2019-02-16T00:14:21.110Z,0.00
2019-02-16T00:15:21.095Z,0.00
2019-02-16T00:16:21.086Z,0.00
2019-02-16T00:17:21.063Z,0.00
2019-02-16T00:18:22.926Z,0.00
2019-02-16T00:19:21.035Z,0.00
2019-02-16T00:20:21.057Z,0.00
2019-02-16T00:21:21.005Z,0.00
2019-02-16T00:22:20.987Z,0.00
2019-02-16T00:23:20.973Z,0.00
2019-02-16T00:24:20.955Z,0.00
2019-02-16T00:25:20.941Z,0.00
2019-02-16T00:26:20.922Z,0.00
2019-02-16T00:27:20.911Z,0.00
2019-02-16T00:28:20.889Z,0.00
2019-02-16T00:29:20.881Z,0.00
2019-02-16T00:30:20.865Z,0.00
2019-02-16T00:31:20.846Z,0.00
2019-02-16T00:32:20.826Z,0.00
2019-02-16T00:33:20.814Z,0.00
2019-02-16T00:34:20.802Z,0.00
2019-02-16T00:35:20.788Z,0.00
2019-02-16T00:36:20.771Z,0.00
2019-02-16T00:37:20.767Z,0.00
2019-02-16T00:38:20.735Z,0.00
2019-02-16T00:39:20.721Z,0.00
2019-02-16T00:40:20.703Z,0.00
2019-02-16T00:41:20.701Z,0.00
2019-02-16T00:42:20.673Z,0.00
2019-02-16T00:43:20.661Z,0.00
2019-02-16T00:44:20.638Z,0.00
2019-02-16T00:45:20.628Z,0.00
2019-02-16T00:46:20.607Z,0.00
2019-02-16T00:47:20.596Z,0.00
2019-02-16T00:48:20.578Z,0.00
2019-02-16T00:49:20.558Z,0.00
2019-02-16T00:50:20.547Z,0.00
2019-02-16T00:51:20.527Z,0.00
2019-02-16T00:52:20.512Z,0.00
2019-02-16T00:53:20.492Z,0.00
2019-02-16T00:54:20.481Z,0.00
2019-02-16T00:55:20.465Z,0.00
2019-02-16T00:56:20.457Z,0.00
2019-02-16T00:57:20.433Z,0.00
2019-02-16T00:58:20.419Z,0.00
2019-02-16T00:59:20.399Z,0.00
2019-02-16T01:00:20.381Z,0.00
2019-02-16T01:01:20.375Z,0.00
2019-02-16T01:02:20.355Z,0.00
2019-02-16T01:03:20.341Z,0.00
2019-02-16T01:04:20.324Z,0.00
2019-02-16T01:05:20.345Z,0.00
2019-02-16T01:06:20.296Z,0.00
2019-02-16T01:07:20.273Z,0.00
2019-02-16T01:08:20.259Z,0.00
2019-02-16T01:09:20.246Z,0.00
2019-02-16T01:10:20.225Z,0.00
2019-02-16T01:11:20.216Z,0.00
2019-02-16T01:12:20.198Z,0.00
2019-02-16T01:13:20.179Z,0.00
2019-02-16T01:14:20.163Z,0.00
2019-02-16T01:15:20.145Z,0.00
2019-02-16T01:16:20.136Z,0.00
2019-02-16T01:17:20.112Z,0.00
2019-02-16T01:18:20.098Z,0.00
2019-02-16T01:19:20.087Z,0.00
2019-02-16T01:20:20.067Z,0.00
2019-02-16T01:21:22.814Z,0.00
2019-02-16T01:22:20.032Z,0.00
2019-02-16T01:23:20.014Z,0.00
2019-02-16T01:24:20.002Z,0.00
2019-02-16T01:25:19.986Z,0.00
2019-02-16T01:26:19.972Z,0.00
2019-02-16T01:27:19.955Z,0.00
2019-02-16T01:28:19.937Z,0.00
2019-02-16T01:29:19.925Z,0.00
2019-02-16T01:30:19.905Z,0.00
2019-02-16T01:31:19.888Z,0.00
2019-02-16T01:32:19.870Z,0.00
2019-02-16T01:33:19.861Z,0.00
2019-02-16T01:34:19.843Z,0.00
2019-02-16T01:35:19.833Z,0.00
2019-02-16T01:36:19.809Z,0.00
2019-02-16T01:37:19.795Z,0.00
2019-02-16T01:38:19.779Z,0.00
2019-02-16T01:39:19.763Z,0.00
2019-02-16T01:40:19.781Z,0.00
2019-02-16T01:41:19.729Z,0.00
2019-02-16T01:42:19.715Z,0.00
2019-02-16T01:43:19.696Z,0.00
2019-02-16T01:44:19.686Z,0.00
2019-02-16T01:45:19.662Z,0.00
2019-02-16T01:46:19.646Z,0.00
2019-02-16T01:47:19.633Z,0.00
2019-02-16T01:48:19.615Z,0.00
2019-02-16T01:49:19.602Z,0.00
2019-02-16T01:50:19.586Z,0.00
2019-02-16T01:51:19.578Z,0.00
2019-02-16T01:52:19.551Z,0.00
2019-02-16T01:53:19.533Z,0.00
2019-02-16T01:54:19.526Z,0.00
2019-02-16T01:55:19.511Z,0.00
2019-02-16T01:56:19.490Z,0.00
2019-02-16T01:57:19.467Z,0.00
2019-02-16T01:58:19.457Z,0.00
2019-02-16T01:59:19.440Z,0.00
2019-02-16T02:00:19.420Z,0.00
2019-02-16T02:01:19.410Z,0.00
2019-02-16T02:02:19.390Z,0.00
2019-02-16T02:03:19.374Z,0.00
2019-02-16T02:04:19.358Z,0.00
2019-02-16T02:05:19.343Z,0.00
2019-02-16T02:06:19.325Z,0.00
2019-02-16T02:07:19.309Z,0.00
2019-02-16T02:08:19.294Z,0.00
2019-02-16T02:09:19.277Z,0.00
2019-02-16T02:10:19.263Z,0.00
2019-02-16T02:11:19.243Z,0.00
2019-02-16T02:12:19.228Z,0.00
2019-02-16T02:13:19.209Z,0.00
2019-02-16T02:14:19.193Z,0.00
2019-02-16T02:15:19.180Z,0.00
2019-02-16T02:16:19.160Z,0.00
2019-02-16T02:17:19.147Z,0.00
2019-02-16T02:18:19.130Z,0.00
2019-02-16T02:19:19.118Z,0.00
2019-02-16T02:20:19.098Z,0.00
2019-02-16T02:21:19.082Z,0.00
2019-02-16T02:22:19.064Z,0.00
2019-02-16T02:23:19.052Z,0.00
2019-02-16T02:24:19.034Z,0.00
2019-02-16T02:25:19.019Z,0.00
2019-02-16T02:26:19.009Z,0.00
2019-02-16T02:27:18.985Z,0.00
2019-02-16T02:28:18.969Z,0.00
2019-02-16T02:29:18.957Z,0.00
2019-02-16T02:30:18.938Z,0.00
2019-02-16T02:31:18.920Z,0.00
2019-02-16T02:32:18.906Z,0.00
2019-02-16T02:33:18.884Z,0.00
2019-02-16T02:34:18.873Z,0.00
2019-02-16T02:35:18.862Z,0.00
2019-02-16T02:36:18.846Z,0.00
2019-02-16T02:37:18.822Z,0.00
2019-02-16T02:38:18.812Z,0.00
2019-02-16T02:39:18.787Z,0.00
2019-02-16T02:40:18.779Z,0.00
2019-02-16T02:41:18.758Z,0.00
2019-02-16T02:42:18.735Z,0.00
2019-02-16T02:43:18.736Z,0.00
2019-02-16T02:44:18.716Z,0.00
2019-02-16T02:45:18.693Z,0.00
2019-02-16T02:46:18.674Z,0.00
2019-02-16T02:47:18.658Z,0.00
2019-02-16T02:48:18.646Z,0.00
2019-02-16T02:49:18.625Z,0.00
2019-02-16T02:50:18.612Z,0.00
2019-02-16T02:52:18.600Z,0.00
2019-02-16T02:53:18.589Z,0.00
2019-02-16T02:54:18.564Z,0.00
2019-02-16T02:55:18.554Z,0.00
2019-02-16T02:56:18.539Z,0.00
2019-02-16T02:57:18.521Z,0.00
2019-02-16T02:58:39.511Z,0.00
2019-02-16T02:59:18.484Z,0.00
2019-02-16T03:00:18.471Z,0.00
2019-02-16T03:01:18.458Z,0.00
2019-02-16T03:02:18.441Z,0.00
2019-02-16T03:03:18.419Z,0.00
2019-02-16T03:04:39.408Z,0.00
2019-02-16T03:05:18.393Z,0.00
2019-02-16T03:06:18.378Z,0.00
2019-02-16T03:07:18.353Z,0.00
2019-02-16T03:08:18.341Z,0.00
2019-02-16T03:09:18.327Z,0.00
2019-02-16T03:10:39.312Z,0.00
2019-02-16T03:11:18.284Z,0.00
2019-02-16T03:12:18.282Z,0.00
2019-02-16T03:13:18.255Z,0.00
2019-02-16T03:14:18.244Z,0.00
2019-02-16T03:15:18.224Z,0.00
2019-02-16T03:16:39.208Z,0.00
2019-02-16T03:17:18.209Z,0.00
2019-02-16T03:18:18.177Z,0.00
2019-02-16T03:19:18.157Z,0.00
2019-02-16T03:20:18.142Z,0.00
2019-02-16T03:21:18.128Z,0.00
2019-02-16T03:22:39.120Z,0.00
2019-02-16T03:23:18.102Z,0.00
2019-02-16T03:24:18.088Z,0.00
2019-02-16T03:25:18.062Z,0.00
2019-02-16T03:26:18.120Z,0.00
2019-02-16T03:27:18.032Z,0.00
2019-02-16T03:28:39.014Z,0.00
2019-02-16T03:29:17.995Z,0.00
2019-02-16T03:30:17.987Z,0.00
2019-02-16T03:31:17.971Z,0.00
2019-02-16T03:32:17.943Z,0.00
2019-02-16T03:33:17.925Z,0.00
2019-02-16T03:34:38.917Z,0.00
2019-02-16T03:35:17.897Z,0.00
2019-02-16T03:36:17.883Z,0.00
2019-02-16T03:37:17.873Z,0.00
2019-02-16T03:38:17.847Z,0.00
2019-02-16T03:39:17.831Z,0.00
2019-02-16T03:40:38.824Z,0.00
2019-02-16T03:41:17.796Z,0.00
2019-02-16T03:42:17.781Z,0.00
2019-02-16T03:43:17.787Z,0.00
2019-02-16T03:44:17.755Z,0.00
2019-02-16T03:45:17.735Z,0.00
2019-02-16T03:46:38.725Z,0.00
2019-02-16T03:47:17.706Z,0.00
2019-02-16T03:48:17.687Z,0.00
2019-02-16T03:49:17.671Z,0.00
2019-02-16T03:50:17.655Z,0.00
2019-02-16T03:51:17.634Z,0.00
2019-02-16T03:52:38.626Z,0.00
2019-02-16T03:53:17.602Z,0.00
2019-02-16T03:54:17.582Z,0.00
2019-02-16T03:55:17.566Z,0.00
2019-02-16T03:56:17.554Z,0.00
2019-02-16T03:57:17.541Z,0.00
2019-02-16T03:58:38.525Z,0.00
2019-02-16T03:59:17.505Z,0.00
2019-02-16T04:00:17.494Z,0.00
2019-02-16T04:01:17.487Z,0.00
2019-02-16T04:02:17.459Z,0.00
2019-02-16T04:03:17.444Z,0.00
2019-02-16T04:04:38.425Z,0.00
2019-02-16T04:05:17.415Z,0.00
2019-02-16T04:06:17.388Z,0.00
2019-02-16T04:07:17.377Z,0.00
2019-02-16T04:08:17.352Z,0.00
2019-02-16T04:09:17.337Z,0.00
2019-02-16T04:10:38.324Z,0.00
2019-02-16T04:11:17.308Z,0.00
2019-02-16T04:12:17.289Z,0.00
2019-02-16T04:13:17.275Z,0.00
2019-02-16T04:14:17.261Z,0.00
2019-02-16T04:15:19.762Z,0.00
2019-02-16T04:16:38.218Z,0.00
2019-02-16T04:17:17.207Z,0.00
2019-02-16T04:18:17.184Z,0.00
2019-02-16T04:19:17.257Z,0.00
2019-02-16T04:20:17.156Z,0.00
2019-02-16T04:21:17.142Z,0.00
2019-02-16T04:22:38.123Z,0.00
2019-02-16T04:23:17.107Z,0.00
2019-02-16T04:24:17.091Z,0.00
2019-02-16T04:25:17.078Z,0.00
2019-02-16T04:26:17.118Z,0.00
2019-02-16T04:27:17.041Z,0.00
2019-02-16T04:28:38.031Z,0.00
2019-02-16T04:29:18.783Z,0.00
2019-02-16T04:30:17.003Z,0.00
2019-02-16T04:31:16.979Z,0.00
2019-02-16T04:32:16.954Z,0.00
2019-02-16T04:33:16.937Z,0.00
2019-02-16T04:34:37.924Z,0.00
2019-02-16T04:35:16.904Z,0.00
2019-02-16T04:36:16.885Z,0.00
2019-02-16T04:37:16.868Z,0.00
2019-02-16T04:38:16.854Z,0.00
2019-02-16T04:39:16.840Z,0.00
2019-02-16T04:40:37.827Z,0.00
2019-02-16T04:41:16.809Z,0.00
2019-02-16T04:42:16.790Z,0.00
2019-02-16T04:43:16.776Z,0.00
2019-02-16T04:44:16.759Z,0.00
2019-02-16T04:45:16.737Z,0.00
2019-02-16T04:46:37.729Z,0.00
2019-02-16T04:47:16.708Z,0.00
2019-02-16T04:48:16.691Z,0.00
2019-02-16T04:49:16.675Z,0.00
2019-02-16T04:50:16.661Z,0.00
2019-02-16T04:51:16.639Z,0.00
2019-02-16T04:52:37.624Z,0.00
2019-02-16T04:53:16.609Z,0.00
2019-02-16T04:54:16.593Z,0.00
2019-02-16T04:55:16.564Z,0.00
2019-02-16T04:56:16.551Z,0.00
2019-02-16T04:57:16.540Z,0.00
2019-02-16T04:58:37.522Z,0.00
2019-02-16T04:59:16.506Z,0.00
2019-02-16T05:00:16.491Z,0.00
2019-02-16T05:01:16.462Z,0.00
2019-02-16T05:02:16.454Z,0.00
2019-02-16T05:03:16.440Z,0.00
2019-02-16T05:04:37.422Z,0.00
2019-02-16T05:05:16.404Z,0.00
2019-02-16T05:06:16.388Z,0.00
2019-02-16T05:07:16.375Z,0.00
2019-02-16T05:08:16.355Z,0.00
2019-02-16T05:09:16.333Z,0.00
2019-02-16T05:10:37.325Z,0.00
2019-02-16T05:11:16.301Z,0.00
2019-02-16T05:12:16.281Z,0.00
2019-02-16T05:13:16.266Z,0.00
2019-02-16T05:14:16.248Z,0.00
2019-02-16T05:15:16.237Z,0.00
2019-02-16T05:16:37.218Z,0.00
2019-02-16T05:17:16.199Z,0.00
2019-02-16T05:18:16.185Z,0.00
2019-02-16T05:19:16.162Z,0.00
2019-02-16T05:20:16.146Z,0.00
2019-02-16T05:21:16.132Z,0.00
2019-02-16T05:22:44.295Z,0.00
2019-02-16T05:23:16.099Z,0.00
2019-02-16T05:24:16.104Z,0.00
2019-02-16T05:25:16.063Z,0.00
2019-02-16T05:26:16.045Z,0.00
2019-02-16T05:27:16.031Z,0.00
2019-02-16T05:28:37.016Z,0.00
2019-02-16T05:29:15.996Z,0.00
2019-02-16T05:30:15.983Z,0.00
2019-02-16T05:31:15.964Z,0.00
2019-02-16T05:32:15.950Z,0.00
2019-02-16T05:33:15.929Z,0.00
2019-02-16T05:34:36.910Z,0.00
2019-02-16T05:35:15.907Z,0.00
2019-02-16T05:36:15.882Z,0.00
2019-02-16T05:37:15.855Z,0.00
2019-02-16T05:38:15.846Z,0.00
2019-02-16T05:39:15.826Z,0.00
2019-02-16T05:40:36.813Z,0.00
2019-02-16T05:41:15.795Z,0.00
2019-02-16T05:42:15.770Z,0.00
2019-02-16T05:43:15.759Z,0.00
2019-02-16T05:44:15.742Z,0.00
2019-02-16T05:45:15.729Z,0.00
2019-02-16T05:46:36.711Z,0.00
2019-02-16T05:47:15.690Z,0.00
2019-02-16T05:48:15.677Z,0.00
2019-02-16T05:49:15.654Z,0.00
2019-02-16T05:50:15.640Z,0.00
2019-02-16T05:51:15.629Z,0.00
2019-02-16T05:52:36.609Z,0.00
2019-02-16T05:53:15.587Z,0.00
2019-02-16T05:54:15.570Z,0.00
2019-02-16T05:55:15.555Z,0.00
2019-02-16T05:56:15.540Z,0.00
2019-02-16T05:57:15.529Z,0.00
2019-02-16T05:58:36.517Z,0.00
2019-02-16T05:59:15.494Z,0.00
2019-02-16T06:00:15.469Z,0.00
2019-02-16T06:01:15.455Z,0.00
2019-02-16T06:02:15.429Z,0.00
2019-02-16T06:03:15.422Z,0.00
2019-02-16T06:04:36.408Z,0.00
2019-02-16T06:05:15.388Z,0.00
2019-02-16T06:06:15.372Z,0.00
2019-02-16T06:07:15.357Z,0.00
2019-02-16T06:08:15.338Z,0.00
2019-02-16T06:09:15.328Z,0.00
2019-02-16T06:10:36.305Z,0.00
2019-02-16T06:11:15.295Z,0.00
2019-02-16T06:12:15.277Z,0.00
2019-02-16T06:13:15.253Z,0.00
2019-02-16T06:14:15.239Z,0.00
2019-02-16T06:15:15.212Z,0.00
2019-02-16T06:16:36.203Z,0.00
2019-02-16T06:17:15.218Z,0.00
2019-02-16T06:18:15.172Z,0.00
2019-02-16T06:19:15.153Z,0.00
2019-02-16T06:20:15.133Z,0.00
2019-02-16T06:21:15.124Z,0.00
2019-02-16T06:22:36.106Z,0.00
2019-02-16T06:23:15.084Z,0.00
2019-02-16T06:24:15.068Z,0.00
2019-02-16T06:25:15.045Z,0.00
2019-02-16T06:26:15.040Z,0.00
2019-02-16T06:27:15.018Z,0.00
2019-02-16T06:28:36.003Z,0.00
2019-02-16T06:29:14.989Z,0.00
2019-02-16T06:30:14.978Z,0.00
2019-02-16T06:31:14.951Z,0.00
2019-02-16T06:32:14.933Z,0.00
2019-02-16T06:33:14.923Z,0.00
2019-02-16T06:34:35.899Z,0.00
2019-02-16T06:35:14.885Z,5.63
2019-02-16T06:36:14.867Z,5.63
2019-02-16T06:37:14.848Z,5.63
2019-02-16T06:38:14.840Z,5.63
2019-02-16T06:39:14.825Z,5.63
2019-02-16T06:40:35.799Z,5.63
2019-02-16T06:41:14.776Z,5.63
2019-02-16T06:42:14.760Z,5.63
2019-02-16T06:43:14.738Z,5.63
2019-02-16T06:44:14.730Z,5.63
2019-02-16T06:45:14.711Z,5.63
2019-02-16T06:46:35.692Z,5.63
2019-02-16T06:47:14.697Z,5.63
2019-02-16T06:48:14.660Z,5.63
2019-02-16T06:49:14.646Z,5.63
2019-02-16T06:50:14.630Z,5.63
2019-02-16T06:51:15.022Z,5.63
2019-02-16T06:52:35.596Z,5.63
2019-02-16T06:53:14.576Z,5.63
2019-02-16T06:54:14.558Z,11.25
2019-02-16T06:55:14.545Z,11.25
2019-02-16T06:56:14.537Z,11.25
2019-02-16T06:57:14.517Z,11.25
2019-02-16T06:58:35.497Z,11.25
2019-02-16T06:59:14.493Z,11.25
2019-02-16T07:00:14.461Z,11.25
2019-02-16T07:01:14.445Z,11.25
2019-02-16T07:02:14.427Z,11.25
2019-02-16T07:03:14.406Z,11.25
2019-02-16T07:04:35.392Z,11.25
2019-02-16T07:05:14.379Z,11.25
2019-02-16T07:06:14.360Z,11.25
2019-02-16T07:07:14.344Z,11.25
2019-02-16T07:08:14.329Z,11.25
2019-02-16T07:09:14.312Z,11.25
2019-02-16T07:10:35.304Z,11.25
2019-02-16T07:11:14.277Z,11.25
2019-02-16T07:12:14.275Z,11.25
2019-02-16T07:13:14.248Z,11.25
2019-02-16T07:14:14.237Z,16.88
2019-02-16T07:15:14.217Z,16.88
2019-02-16T07:16:35.199Z,16.88
2019-02-16T07:17:14.181Z,16.88
2019-02-16T07:18:14.167Z,16.88
2019-02-16T07:19:14.146Z,16.88
2019-02-16T07:20:14.122Z,16.88
2019-02-16T07:21:14.107Z,16.88
2019-02-16T07:22:35.096Z,16.88
2019-02-16T07:23:22.174Z,16.88
2019-02-16T07:24:14.059Z,16.88
2019-02-16T07:25:14.048Z,16.88
2019-02-16T07:26:14.036Z,16.88
2019-02-16T07:27:14.020Z,16.88
2019-02-16T07:28:35.015Z,16.88
2019-02-16T07:29:13.984Z,16.88
2019-02-16T07:30:13.969Z,16.88
2019-02-16T07:31:15.794Z,16.88
2019-02-16T07:32:13.933Z,16.88
2019-02-16T07:33:13.921Z,16.88
2019-02-16T07:34:34.901Z,16.88
2019-02-16T07:35:13.886Z,16.88
2019-02-16T07:36:13.865Z,16.88
2019-02-16T07:37:13.846Z,22.50
2019-02-16T07:38:13.834Z,22.50
2019-02-16T07:39:13.816Z,22.50
2019-02-16T07:40:34.802Z,22.50
2019-02-16T07:41:13.807Z,22.50
2019-02-16T07:42:13.770Z,22.50
2019-02-16T07:43:13.757Z,22.50
2019-02-16T07:44:13.739Z,22.50
2019-02-16T07:45:13.723Z,22.50
2019-02-16T07:46:34.702Z,22.50
2019-02-16T07:47:13.702Z,28.13
2019-02-16T07:48:13.671Z,28.13
2019-02-16T07:49:13.661Z,33.75
2019-02-16T07:50:13.645Z,45.00
2019-02-16T07:51:13.641Z,50.63
2019-02-16T07:52:34.606Z,50.63
2019-02-16T07:53:13.590Z,56.25
2019-02-16T07:54:13.566Z,67.50
2019-02-16T07:55:13.558Z,78.75
2019-02-16T07:56:13.552Z,90.00
2019-02-16T07:57:13.538Z,101.25
2019-02-16T07:58:34.594Z,101.25
2019-02-16T07:59:13.494Z,106.88
2019-02-16T08:00:13.478Z,106.88
2019-02-16T08:01:13.462Z,112.50
2019-02-16T08:02:13.452Z,112.50
2019-02-16T08:03:13.434Z,118.13
2019-02-16T08:04:34.421Z,118.13
2019-02-16T08:05:13.406Z,123.75
2019-02-16T08:06:13.393Z,123.75
2019-02-16T08:07:13.367Z,123.75
2019-02-16T08:08:13.352Z,129.38
2019-02-16T08:09:13.346Z,129.38
2019-02-16T08:10:34.329Z,135.00
2019-02-16T08:11:13.308Z,135.00
2019-02-16T08:12:13.292Z,140.63
2019-02-16T08:13:13.277Z,140.63
2019-02-16T08:14:13.260Z,140.63
2019-02-16T08:15:13.245Z,146.25
2019-02-16T08:16:34.232Z,146.25
2019-02-16T08:17:13.216Z,151.88
2019-02-16T08:18:13.204Z,151.88
2019-02-16T08:19:13.189Z,151.88
2019-02-16T08:20:13.174Z,157.50
2019-02-16T08:21:13.155Z,157.50
2019-02-16T08:22:34.152Z,157.50
2019-02-16T08:23:13.126Z,157.50
2019-02-16T08:24:13.108Z,163.13
2019-02-16T08:25:13.102Z,163.13
2019-02-16T08:26:13.080Z,163.13
2019-02-16T08:27:13.064Z,168.75
2019-02-16T08:28:34.053Z,168.75
2019-02-16T08:29:13.037Z,168.75
2019-02-16T08:30:13.028Z,174.38
2019-02-16T08:31:13.006Z,174.38
2019-02-16T08:32:12.996Z,174.38
2019-02-16T08:33:12.978Z,180.00
2019-02-16T08:34:33.972Z,180.00
2019-02-16T08:35:12.945Z,180.00
2019-02-16T08:36:12.946Z,185.63
2019-02-16T08:37:12.912Z,185.63
2019-02-16T08:38:12.904Z,191.25
2019-02-16T08:39:12.900Z,191.25
2019-02-16T08:40:33.886Z,191.25
2019-02-16T08:41:12.871Z,196.88
2019-02-16T08:42:12.852Z,196.88
2019-02-16T08:43:12.838Z,196.88
2019-02-16T08:44:12.823Z,196.88
2019-02-16T08:45:12.815Z,208.13
2019-02-16T08:46:33.801Z,202.50
2019-02-16T08:47:12.774Z,208.13
2019-02-16T08:48:12.768Z,208.13
2019-02-16T08:49:12.749Z,208.13
2019-02-16T08:50:12.739Z,208.13
2019-02-16T08:51:12.724Z,208.13
2019-02-16T08:52:33.715Z,213.75
2019-02-16T08:53:12.698Z,213.75
2019-02-16T08:54:12.684Z,213.75
2019-02-16T08:55:12.677Z,219.38
2019-02-16T08:56:12.680Z,219.38
2019-02-16T08:57:12.649Z,219.38
2019-02-16T08:58:33.644Z,225.00
2019-02-16T08:59:12.618Z,225.00
2019-02-16T09:00:12.606Z,225.00
2019-02-16T09:01:12.593Z,230.63
2019-02-16T09:02:12.580Z,230.63
2019-02-16T09:03:12.565Z,230.63
2019-02-16T09:04:33.564Z,230.63
2019-02-16T09:05:12.537Z,236.25
2019-02-16T09:06:12.527Z,236.25
2019-02-16T09:07:12.511Z,236.25
2019-02-16T09:08:12.499Z,236.25
2019-02-16T09:09:12.489Z,241.88
2019-02-16T09:10:33.481Z,241.88
2019-02-16T09:11:12.459Z,241.88
2019-02-16T09:12:12.446Z,247.50
2019-02-16T09:13:12.435Z,247.50
2019-02-16T09:14:12.421Z,247.50
2019-02-16T09:15:12.411Z,253.13
2019-02-16T09:16:33.398Z,253.13
2019-02-16T09:17:13.446Z,253.13
2019-02-16T09:18:12.368Z,253.13
2019-02-16T09:19:12.360Z,258.75
2019-02-16T09:20:12.348Z,258.75
2019-02-16T09:21:14.764Z,258.75
2019-02-16T09:22:33.322Z,264.38
2019-02-16T09:23:12.307Z,264.38
2019-02-16T09:24:12.296Z,264.38
2019-02-16T09:25:12.285Z,264.38
2019-02-16T09:26:12.269Z,270.00
2019-02-16T09:27:12.260Z,270.00
2019-02-16T09:28:33.249Z,270.00
2019-02-16T09:29:12.225Z,270.00
2019-02-16T09:30:12.229Z,270.00
2019-02-16T09:31:12.210Z,270.00
2019-02-16T09:32:13.252Z,270.00
2019-02-16T09:33:12.228Z,270.00
2019-02-16T09:34:33.180Z,275.63
2019-02-16T09:35:12.167Z,275.63
2019-02-16T09:36:12.155Z,275.63
2019-02-16T09:37:12.135Z,281.25
2019-02-16T09:38:12.126Z,281.25
2019-02-16T09:39:12.112Z,281.25
2019-02-16T09:40:33.106Z,281.25
2019-02-16T09:41:12.093Z,286.88
2019-02-16T09:42:12.076Z,286.88
2019-02-16T09:43:12.067Z,286.88
2019-02-16T09:44:12.050Z,292.50
2019-02-16T09:45:12.039Z,292.50
2019-02-16T09:46:33.146Z,292.50
2019-02-16T09:47:12.025Z,298.13
2019-02-16T09:48:12.001Z,298.13
2019-02-16T09:49:11.992Z,298.13
2019-02-16T09:50:11.983Z,298.13
2019-02-16T09:51:11.982Z,303.75
2019-02-16T09:52:32.981Z,303.75
2019-02-16T09:53:11.960Z,303.75
2019-02-16T09:54:11.947Z,309.38
2019-02-16T09:55:11.937Z,315.00
2019-02-16T09:56:11.934Z,309.38
2019-02-16T09:57:11.910Z,315.00
2019-02-16T09:58:32.906Z,315.00
2019-02-16T09:59:11.882Z,315.00
2019-02-16T10:00:13.817Z,315.00
2019-02-16T10:01:11.866Z,320.63
2019-02-16T10:02:11.898Z,320.63
2019-02-16T10:03:11.846Z,320.63
2019-02-16T10:04:32.844Z,320.63
2019-02-16T10:05:11.831Z,326.25
2019-02-16T10:06:11.818Z,326.25
2019-02-16T10:07:11.815Z,326.25
2019-02-16T10:08:11.792Z,326.25
2019-02-16T10:09:11.781Z,331.88
2019-02-16T10:10:32.775Z,331.88
2019-02-16T10:11:11.797Z,331.88
2019-02-16T10:12:11.766Z,337.50
2019-02-16T10:13:11.741Z,337.50
2019-02-16T10:14:11.731Z,337.50
2019-02-16T10:15:11.731Z,337.50
2019-02-16T10:16:32.720Z,343.13
2019-02-16T10:17:11.708Z,343.13
2019-02-16T10:18:11.690Z,343.13
2019-02-16T10:19:11.685Z,348.75
2019-02-16T10:20:11.676Z,348.75
2019-02-16T10:21:11.664Z,348.75
2019-02-16T10:22:32.661Z,348.75
2019-02-16T10:23:11.635Z,354.38
2019-02-16T10:24:17.628Z,354.38
2019-02-16T10:25:11.621Z,354.38
2019-02-16T10:26:11.611Z,354.38
2019-02-16T10:27:11.600Z,360.00
2019-02-16T10:28:32.601Z,365.63
2019-02-16T10:29:11.591Z,360.00
2019-02-16T10:30:11.574Z,360.00
2019-02-16T10:31:11.578Z,360.00
2019-02-16T10:32:11.568Z,365.63
2019-02-16T10:33:11.562Z,360.00
2019-02-16T10:34:32.541Z,365.63
2019-02-16T10:35:11.535Z,365.63
2019-02-16T10:36:11.524Z,365.63
2019-02-16T10:37:11.510Z,365.63
2019-02-16T10:38:11.495Z,365.63
2019-02-16T10:39:11.494Z,371.25
2019-02-16T10:40:32.492Z,376.88
2019-02-16T10:41:11.482Z,371.25
2019-02-16T10:42:11.465Z,376.88
2019-02-16T10:43:11.460Z,376.88
2019-02-16T10:44:11.445Z,371.25
2019-02-16T10:45:11.441Z,382.50
2019-02-16T10:46:32.435Z,382.50
2019-02-16T10:47:11.421Z,376.88
2019-02-16T10:48:11.415Z,382.50
2019-02-16T10:49:11.407Z,382.50
2019-02-16T10:50:11.391Z,382.50
2019-02-16T10:51:11.395Z,382.50
2019-02-16T10:52:32.386Z,388.13
2019-02-16T10:53:11.370Z,388.13
2019-02-16T10:54:11.359Z,393.75
2019-02-16T10:55:11.354Z,388.13
2019-02-16T10:56:11.344Z,393.75
2019-02-16T10:57:11.336Z,393.75
2019-02-16T10:58:32.340Z,393.75
2019-02-16T10:59:11.326Z,393.75
2019-02-16T11:00:11.311Z,393.75
2019-02-16T11:01:11.309Z,399.38
2019-02-16T11:02:11.302Z,399.38
2019-02-16T11:03:11.286Z,399.38
2019-02-16T11:04:38.306Z,399.38
2019-02-16T11:05:11.274Z,405.00
2019-02-16T11:06:11.268Z,405.00
2019-02-16T11:07:11.250Z,405.00
2019-02-16T11:08:11.246Z,405.00
2019-02-16T11:09:11.241Z,410.63
2019-02-16T11:10:32.247Z,410.63
2019-02-16T11:11:11.228Z,410.63
2019-02-16T11:12:11.221Z,410.63
2019-02-16T11:13:11.204Z,410.63
2019-02-16T11:14:11.206Z,416.25
2019-02-16T11:15:11.194Z,416.25
2019-02-16T11:16:32.195Z,416.25
2019-02-16T11:17:11.190Z,416.25
2019-02-16T11:18:11.176Z,416.25
2019-02-16T11:19:11.170Z,421.88
2019-02-16T11:20:11.149Z,421.88
2019-02-16T11:21:11.146Z,421.88
2019-02-16T11:22:32.148Z,421.88
2019-02-16T11:23:11.136Z,421.88
2019-02-16T11:24:11.125Z,421.88
2019-02-16T11:25:11.115Z,427.50
2019-02-16T11:26:11.117Z,427.50
2019-02-16T11:27:11.106Z,433.13
2019-02-16T11:28:32.157Z,427.50
2019-02-16T11:29:11.283Z,427.50
2019-02-16T11:30:11.095Z,427.50
2019-02-16T11:31:11.084Z,433.13
2019-02-16T11:32:11.074Z,433.13
2019-02-16T11:33:11.104Z,433.13
2019-02-16T11:34:32.064Z,438.75
2019-02-16T11:35:11.051Z,438.75
2019-02-16T11:36:11.040Z,433.13
2019-02-16T11:37:11.036Z,433.13
2019-02-16T11:38:11.032Z,438.75
2019-02-16T11:39:11.024Z,438.75
2019-02-16T11:40:32.028Z,438.75
2019-02-16T11:41:18.653Z,433.13
2019-02-16T11:42:11.002Z,433.13
2019-02-16T11:43:10.996Z,433.13
2019-02-16T11:44:10.997Z,433.13
2019-02-16T11:45:10.986Z,433.13
2019-02-16T11:46:31.988Z,433.13
2019-02-16T11:47:10.975Z,433.13
2019-02-16T11:48:11.568Z,433.13
2019-02-16T11:49:10.963Z,433.13
2019-02-16T11:50:10.951Z,433.13
2019-02-16T11:51:10.965Z,433.13
2019-02-16T11:52:31.943Z,438.75
2019-02-16T11:53:10.940Z,438.75
2019-02-16T11:54:10.926Z,433.13
2019-02-16T11:55:10.916Z,433.13
2019-02-16T11:56:10.915Z,438.75
2019-02-16T11:57:10.902Z,433.13
2019-02-16T11:58:31.908Z,433.13
2019-02-16T11:59:10.904Z,433.13
2019-02-16T12:00:10.889Z,433.13
2019-02-16T12:01:10.893Z,433.13
2019-02-16T12:02:10.887Z,433.13
2019-02-16T12:03:10.872Z,438.75
2019-02-16T12:04:31.873Z,433.13
2019-02-16T12:05:10.858Z,433.13
2019-02-16T12:06:10.871Z,433.13
2019-02-16T12:07:10.844Z,433.13
2019-02-16T12:08:10.838Z,433.13
2019-02-16T12:09:10.840Z,433.13
2019-02-16T12:10:31.855Z,433.13
2019-02-16T12:11:10.831Z,433.13
2019-02-16T12:12:10.821Z,433.13
2019-02-16T12:13:10.815Z,427.50
2019-02-16T12:14:10.810Z,427.50
2019-02-16T12:15:10.798Z,427.50
2019-02-16T12:16:31.799Z,427.50
2019-02-16T12:17:10.790Z,427.50
2019-02-16T12:18:10.780Z,427.50
2019-02-16T12:19:10.778Z,427.50
2019-02-16T12:20:10.772Z,427.50
2019-02-16T12:21:10.766Z,427.50
2019-02-16T12:22:31.761Z,427.50
2019-02-16T12:23:10.757Z,427.50
2019-02-16T12:24:10.746Z,427.50
2019-02-16T12:25:10.743Z,421.88
2019-02-16T12:26:10.733Z,421.88
2019-02-16T12:27:10.731Z,421.88
2019-02-16T12:28:31.729Z,421.88
2019-02-16T12:29:10.713Z,421.88
2019-02-16T12:30:10.716Z,421.88
2019-02-16T12:31:10.710Z,421.88
2019-02-16T12:32:10.686Z,421.88
2019-02-16T12:33:10.688Z,421.88
2019-02-16T12:34:31.685Z,421.88
2019-02-16T12:35:10.677Z,421.88
2019-02-16T12:36:10.668Z,421.88
2019-02-16T12:37:10.664Z,421.88
2019-02-16T12:38:10.660Z,416.25
2019-02-16T12:39:10.658Z,416.25
2019-02-16T12:40:31.655Z,416.25
2019-02-16T12:41:10.642Z,416.25
2019-02-16T12:42:10.635Z,416.25
2019-02-16T12:43:10.655Z,416.25
2019-02-16T12:44:10.632Z,416.25
2019-02-16T12:45:10.626Z,416.25
2019-02-16T12:46:31.616Z,416.25
2019-02-16T12:47:10.608Z,410.63
2019-02-16T12:48:10.617Z,410.63
2019-02-16T12:49:10.595Z,410.63
2019-02-16T12:50:10.586Z,410.63
2019-02-16T12:51:10.617Z,410.63
2019-02-16T12:52:31.586Z,410.63
2019-02-16T12:53:10.569Z,410.63
2019-02-16T12:54:10.563Z,410.63
2019-02-16T12:55:14.677Z,410.63
2019-02-16T12:56:10.552Z,405.00
2019-02-16T12:57:10.606Z,405.00